Time;durP1;ratioP1;P1;durP2;ratioP2;P2;SDS_P1;SDS_P2;PMS_P1;PMS_P2;Temp;Humidity;BMP_temperature;BMP_pressure;BME280_temperature;BME280_humidity;BME280_pressure;Samples;Min_cycle;Max_cycle;Signal;HPM_P1;HPM_P2
2023/10/08 00:00:53;;;;;;;5.05;2.35;;;;;;;21.93;57.27;102389.94;5002468;28;20077;-37
2023/10/08 00:03:20;;;;;;;5.28;2.72;;;;;;;21.93;57.54;102398.88;4999253;28;20354;-37
2023/10/08 00:05:49;;;;;;;4.90;2.53;;;;;;;21.93;57.12;102412.38;5000674;28;20041;-37
2023/10/08 00:08:16;;;;;;;5.18;2.63;;;;;;;21.92;57.19;102409.84;4999593;28;20438;-37
2023/10/08 00:10:44;;;;;;;4.65;2.22;;;;;;;21.93;57.38;102411.53;4998758;28;20074;-37
2023/10/08 00:13:12;;;;;;;4.93;2.78;;;;;;;21.93;57.33;102411.53;5001652;28;20054;-37
2023/10/08 00:15:52;;;;;;;5.65;2.60;;;;;;;21.93;57.18;102411.53;5007388;28;20087;-37
2023/10/08 00:18:22;;;;;;;4.97;2.75;;;;;;;21.92;57.45;102417.94;5004259;28;20065;-37
2023/10/08 00:20:58;;;;;;;4.97;2.55;;;;;;;21.92;57.25;102415.22;5005123;28;20431;-37
2023/10/08 00:23:28;;;;;;;4.88;2.85;;;;;;;21.91;57.18;102398.19;5003955;28;20042;-37
2023/10/08 00:25:54;;;;;;;4.75;2.47;;;;;;;21.91;57.21;102400.88;5002021;28;20061;-37
2023/10/08 00:28:22;;;;;;;7.07;3.25;;;;;;;21.92;57.30;102399.03;5000486;28;20432;-37
2023/10/08 00:30:49;;;;;;;5.38;2.50;;;;;;;21.91;57.37;102386.53;4999943;28;20042;-37
2023/10/08 00:33:16;;;;;;;5.30;2.58;;;;;;;21.92;57.45;102397.19;5001649;28;20129;-37
2023/10/08 00:35:43;;;;;;;5.07;2.30;;;;;;;21.92;57.18;102390.94;5005442;28;20061;-37
2023/10/08 00:38:20;;;;;;;4.05;2.47;;;;;;;21.91;57.29;102376.59;5005710;28;20201;-37
2023/10/08 00:40:55;;;;;;;5.25;2.40;;;;;;;21.92;57.00;102377.44;5001128;28;20129;-37
2023/10/08 00:43:33;;;;;;;6.18;2.70;;;;;;;21.90;57.29;102377.56;5002565;28;20077;-37
2023/10/08 00:46:10;;;;;;;5.45;2.63;;;;;;;21.92;56.93;102372.03;5006202;28;20085;-37
2023/10/08 00:48:38;;;;;;;5.70;2.50;;;;;;;21.91;57.16;102359.53;4999337;28;20054;-37
2023/10/08 00:51:26;;;;;;;4.63;2.50;;;;;;;21.90;57.11;102361.38;4998150;28;20124;-37
2023/10/08 00:54:10;;;;;;;5.88;2.97;;;;;;;21.90;57.46;102355.13;5001182;28;20081;-37
2023/10/08 00:56:49;;;;;;;6.22;2.83;;;;;;;21.91;57.40;102357.69;5003193;28;20090;-37
2023/10/08 00:59:16;;;;;;;7.07;2.65;;;;;;;21.91;57.25;102370.34;4995299;28;20050;-37
2023/10/08 01:01:51;;;;;;;4.78;2.88;;;;;;;21.90;57.03;102379.41;4999305;28;20053;-37
2023/10/08 01:04:22;;;;;;;5.82;2.67;;;;;;;21.89;57.29;102372.31;5001505;28;20127;-37
2023/10/08 01:06:58;;;;;;;4.45;2.40;;;;;;;21.89;57.10;102370.47;5003571;28;20061;-37
2023/10/08 01:09:35;;;;;;;4.65;2.65;;;;;;;21.91;57.13;102359.53;5002817;28;20492;-37
2023/10/08 01:12:33;;;;;;;6.57;2.58;;;;;;;21.88;57.37;102354.44;4999888;28;20338;-37
2023/10/08 01:15:13;;;;;;;5.63;2.40;;;;;;;21.90;57.12;102355.13;5002264;28;20050;-37
2023/10/08 01:17:48;;;;;;;3.85;2.13;;;;;;;21.89;57.57;102361.53;4999196;28;20104;-37
2023/10/08 01:23:05;;;;;;;5.05;2.17;;;;;;;21.86;57.11;102356.41;5001739;28;20051;-37
2023/10/08 01:25:31;;;;;;;4.72;2.35;;;;;;;21.88;57.32;102359.81;5001331;28;20057;-37
2023/10/08 01:28:08;;;;;;;5.35;2.60;;;;;;;21.86;57.43;102373.44;5003263;28;20045;-37
2023/10/08 01:30:41;;;;;;;4.97;2.55;;;;;;;21.86;57.08;102372.59;5003228;28;20050;-37
2023/10/08 01:33:13;;;;;;;4.55;2.42;;;;;;;21.86;57.30;102373.44;5003697;28;20053;-37
2023/10/08 01:35:41;;;;;;;5.43;2.30;;;;;;;21.86;57.21;102370.75;5004871;28;20049;-37
2023/10/08 01:38:13;;;;;;;4.05;1.90;;;;;;;21.86;56.96;102378.00;5003912;28;20050;-37
2023/10/08 01:40:41;;;;;;;5.05;2.17;;;;;;;21.86;57.26;102386.09;5005414;28;20053;-37
2023/10/08 01:43:10;;;;;;;3.72;2.45;;;;;;;21.85;57.19;102382.53;5003626;28;20108;-37
2023/10/08 01:45:40;;;;;;;4.25;2.10;;;;;;;21.85;57.33;102393.34;5004250;28;20054;-37
2023/10/08 01:48:09;;;;;;;4.30;1.90;;;;;;;21.85;57.37;102397.88;5000966;28;20046;-37
2023/10/08 01:50:37;;;;;;;4.32;2.08;;;;;;;21.84;57.07;102404.28;5003738;28;20057;-37
2023/10/08 01:53:09;;;;;;;3.50;2.03;;;;;;;21.84;57.34;102399.75;5003523;28;20089;-36
2023/10/08 01:55:48;;;;;;;5.03;2.10;;;;;;;21.84;57.13;102407.00;4997863;28;20511;-37
2023/10/08 01:58:17;;;;;;;4.45;2.33;;;;;;;21.83;56.96;102416.94;5001478;28;20054;-37
2023/10/08 02:00:47;;;;;;;4.20;2.05;;;;;;;21.84;57.20;102439.38;4997633;28;20088;-37
2023/10/08 02:03:16;;;;;;;4.10;2.35;;;;;;;21.83;57.05;102425.03;5004606;28;20149;-37
2023/10/08 02:05:43;;;;;;;3.60;2.30;;;;;;;21.83;57.29;102416.06;4999956;28;20350;-37
2023/10/08 02:08:11;;;;;;;6.65;2.70;;;;;;;21.82;57.32;102425.16;5002133;28;20497;-37
2023/10/08 02:10:40;;;;;;;2.85;1.73;;;;;;;21.82;57.24;102439.50;5003073;28;20176;-37
2023/10/08 02:13:08;;;;;;;3.70;1.77;;;;;;;21.82;56.95;102427.84;5005042;28;20442;-37
2023/10/08 02:15:36;;;;;;;3.83;2.00;;;;;;;21.83;57.15;102426.84;5006791;28;20053;-37
2023/10/08 02:18:04;;;;;;;4.32;2.53;;;;;;;21.82;57.16;102409.81;5001631;28;20054;-37
2023/10/08 02:20:31;;;;;;;3.97;2.00;;;;;;;21.81;57.30;102407.25;5003208;28;20061;-37
2023/10/08 02:22:57;;;;;;;5.05;2.00;;;;;;;21.81;57.05;102408.13;4997253;28;20050;-37
2023/10/08 02:25:24;;;;;;;4.35;2.30;;;;;;;21.81;57.12;102399.16;5002835;28;20045;-37
2023/10/08 02:27:51;;;;;;;4.47;2.55;;;;;;;21.81;57.27;102424.31;5001147;28;20119;-37
2023/10/08 02:30:18;;;;;;;3.53;2.03;;;;;;;21.82;57.37;102414.34;5001656;28;20080;-37
2023/10/08 02:32:46;;;;;;;5.82;2.42;;;;;;;21.81;57.18;102424.31;5000112;28;20112;-37
2023/10/08 02:35:13;;;;;;;4.05;2.10;;;;;;;21.81;57.36;102426.16;5004412;28;20046;-37
2023/10/08 02:37:40;;;;;;;2.88;1.73;;;;;;;21.80;57.37;102390.22;4999620;28;20046;-37
2023/10/08 02:43:08;;;;;;;4.20;2.15;;;;;;;21.81;57.23;102418.06;5000990;28;20136;-37
2023/10/08 02:45:38;;;;;;;3.88;1.88;;;;;;;21.80;56.99;102421.75;5000508;28;20053;-37
2023/10/08 02:48:12;;;;;;;2.88;1.88;;;;;;;21.80;57.29;102432.56;5001737;28;20430;-37
2023/10/08 02:50:40;;;;;;;4.68;2.15;;;;;;;21.79;57.06;102430.81;5000550;28;20085;-37
2023/10/08 02:53:11;;;;;;;2.92;1.80;;;;;;;21.78;57.07;102419.19;5000430;28;20060;-37
2023/10/08 02:55:44;;;;;;;4.10;1.83;;;;;;;21.79;57.11;102415.50;4999249;28;20136;-37
2023/10/08 02:58:14;;;;;;;3.43;2.10;;;;;;;21.78;57.04;102413.78;5001931;28;20050;-37
2023/10/08 03:00:49;;;;;;;3.50;2.22;;;;;;;21.79;57.34;102433.53;4994952;28;20765;-37
2023/10/08 03:03:16;;;;;;;4.25;2.38;;;;;;;21.77;57.24;102433.69;5000178;28;20446;-37
2023/10/08 03:05:48;;;;;;;4.00;2.38;;;;;;;21.78;57.23;102424.59;5000637;28;20057;-37
2023/10/08 03:08:24;;;;;;;3.80;2.13;;;;;;;21.77;57.11;102427.44;5000632;28;20054;-37
2023/10/08 03:11:03;;;;;;;3.33;2.20;;;;;;;21.78;56.98;102445.31;4998209;28;20052;-37
2023/10/08 03:13:30;;;;;;;3.17;1.90;;;;;;;21.77;56.99;102430.97;5000977;28;20104;-37
2023/10/08 03:18:36;;;;;;;4.60;2.15;;;;;;;21.76;57.19;102426.59;5001565;28;20058;-37
2023/10/08 03:21:05;;;;;;;3.40;1.92;;;;;;;21.75;56.92;102419.50;5000209;28;20132;-37
2023/10/08 03:23:35;;;;;;;2.55;1.73;;;;;;;21.75;57.03;102399.72;4998759;28;20439;-37
2023/10/08 03:26:10;;;;;;;3.85;1.92;;;;;;;21.74;57.08;102415.06;4994304;28;20070;-37
2023/10/08 03:28:41;;;;;;;4.32;2.17;;;;;;;21.74;57.06;102406.13;5001039;28;20226;-37
2023/10/08 03:31:16;;;;;;;4.10;1.90;;;;;;;21.74;57.23;102414.22;4999578;28;20045;-37
2023/10/08 03:33:48;;;;;;;3.17;2.03;;;;;;;21.73;57.19;102437.66;5000114;28;20050;-37
2023/10/08 03:36:21;;;;;;;3.92;2.13;;;;;;;21.73;57.30;102464.63;5000433;28;20104;-37
2023/10/08 03:38:51;;;;;;;4.78;2.03;;;;;;;21.73;57.25;102463.78;5000731;28;20116;-37
2023/10/08 03:41:27;;;;;;;4.00;2.25;;;;;;;21.72;57.26;102465.63;4995556;28;20057;-37
2023/10/08 03:44:01;;;;;;;3.65;2.40;;;;;;;21.73;57.09;102474.59;4998994;28;20054;-37
2023/10/08 03:46:29;;;;;;;4.68;2.30;;;;;;;21.73;57.02;102463.78;4999797;28;20515;-37
2023/10/08 03:48:57;;;;;;;2.83;1.73;;;;;;;21.73;57.05;102466.50;5000787;28;20406;-37
2023/10/08 03:51:27;;;;;;;3.00;1.73;;;;;;;21.73;56.91;102471.88;5005947;28;20074;-37
2023/10/08 03:56:41;;;;;;;5.00;2.75;;;;;;;21.71;57.07;102463.94;5003187;28;20108;-36
2023/10/08 03:59:12;;;;;;;3.75;1.98;;;;;;;21.71;57.33;102477.44;5002141;28;20361;-37
2023/10/08 04:01:42;;;;;;;5.47;2.00;;;;;;;21.70;57.14;102483.78;5002112;28;20057;-37
2023/10/08 04:04:15;;;;;;;5.13;2.22;;;;;;;21.71;57.02;102498.16;5003284;28;20050;-37
2023/10/08 04:06:51;;;;;;;3.30;1.57;;;;;;;21.71;57.32;102515.22;5001361;28;20045;-37
2023/10/08 04:09:25;;;;;;;3.63;2.25;;;;;;;21.71;57.00;102508.94;5002915;28;20480;-37
2023/10/08 04:11:53;;;;;;;4.05;1.98;;;;;;;21.70;57.27;102516.19;5004832;28;20350;-37
2023/10/08 04:14:25;;;;;;;2.97;1.88;;;;;;;21.69;57.12;102509.94;5004157;28;20049;-37
2023/10/08 04:16:52;;;;;;;4.45;2.13;;;;;;;21.69;56.97;102515.34;5006257;28;20092;-37
2023/10/08 04:19:21;;;;;;;3.17;2.00;;;;;;;21.69;57.25;102512.63;5004628;28;20081;-37
2023/10/08 04:21:57;;;;;;;3.95;2.00;;;;;;;21.69;57.12;102518.03;4998771;28;20062;-37
2023/10/08 04:24:29;;;;;;;3.78;2.22;;;;;;;21.68;57.34;102521.72;5002412;28;20478;-37
2023/10/08 04:26:57;;;;;;;3.37;2.00;;;;;;;21.68;57.27;102531.69;5001871;28;20058;-37
2023/10/08 04:29:26;;;;;;;4.10;2.47;;;;;;;21.68;57.22;102527.13;5000203;28;20077;-37
2023/10/08 04:32:07;;;;;;;4.72;2.20;;;;;;;21.67;57.17;102516.47;5000657;28;20053;-37
2023/10/08 04:34:35;;;;;;;4.03;2.00;;;;;;;21.66;57.26;102520.16;5000468;28;20052;-37
2023/10/08 04:37:03;;;;;;;3.53;1.85;;;;;;;21.66;57.20;102507.50;5003555;28;20084;-37
2023/10/08 04:39:33;;;;;;;3.17;1.90;;;;;;;21.65;57.02;102495.00;4999555;28;20092;-37
2023/10/08 04:42:13;;;;;;;4.35;2.00;;;;;;;21.66;56.87;102496.72;5005587;28;20141;-37
2023/10/08 04:44:40;;;;;;;3.15;1.77;;;;;;;21.66;57.08;102488.63;5001040;28;20145;-37
2023/10/08 04:47:08;;;;;;;4.15;2.42;;;;;;;21.64;57.37;102490.63;5004649;28;20809;-37
2023/10/08 04:49:45;;;;;;;5.57;2.20;;;;;;;21.64;56.93;102498.72;5002631;28;20045;-37
2023/10/08 04:52:14;;;;;;;4.72;1.67;;;;;;;21.64;57.11;102512.19;5000940;28;20042;-37
2023/10/08 04:54:51;;;;;;;2.67;1.70;;;;;;;21.63;57.41;102526.69;5001526;28;20046;-37
2023/10/08 04:57:22;;;;;;;3.33;1.80;;;;;;;21.63;57.36;102526.69;5001351;28;20046;-37
2023/10/08 04:59:57;;;;;;;3.17;1.80;;;;;;;21.63;56.99;102534.78;5006033;28;20046;-37
2023/10/08 05:10:44;;;;;;;2.50;1.60;;;;;;;21.60;57.04;102518.88;4998997;28;20319;-37
2023/10/08 05:16:06;;;;;;;3.28;1.90;;;;;;;21.59;57.45;102535.19;5002387;28;20049;-37
2023/10/08 05:19:14;;;;;;;2.58;1.50;;;;;;;21.57;57.24;102535.31;5007033;28;20053;-37
2023/10/08 05:21:25;;;;;;;3.78;1.80;;;;;;;21.57;57.06;102546.13;5004111;28;20402;-37
2023/10/08 05:24:13;;;;;;;5.80;2.05;;;;;;;21.56;57.57;102548.97;5010500;28;20398;-37
2023/10/08 05:26:45;;;;;;;3.33;1.35;;;;;;;21.56;57.27;102548.97;5005728;28;20054;-37
2023/10/08 05:29:51;;;;;;;3.10;1.80;;;;;;;21.53;57.10;102552.78;5000040;28;20046;-37
2023/10/08 05:33:06;;;;;;;;;;;;;;;21.51;57.59;102554.75;5003273;28;20047;-37
2023/10/08 05:38:02;;;;;;;3.78;2.00;;;;;;;21.51;57.57;102562.84;5004439;28;20073;-37
2023/10/08 05:43:33;;;;;;;2.20;1.52;;;;;;;21.47;57.60;102561.41;5000128;28;20137;-37
2023/10/08 05:46:39;;;;;;;2.83;1.70;;;;;;;21.46;57.70;102564.22;5000710;28;20049;-37
2023/10/08 06:16:31;;;;;;;2.80;1.60;;;;;;;21.35;57.86;102605.66;4999377;28;20054;-37
2023/10/08 06:18:37;;;;;;;2.38;1.50;;;;;;;21.36;57.74;102612.75;4999925;28;20050;-37
2023/10/08 06:21:08;;;;;;;4.43;1.63;;;;;;;21.34;57.74;102614.72;5003763;28;20050;-37
2023/10/08 06:23:37;;;;;;;2.85;1.60;;;;;;;21.33;58.13;102610.31;5005879;28;20041;-37
2023/10/08 06:28:38;;;;;;;2.58;1.92;;;;;;;21.32;57.80;102627.47;4997357;28;20251;-37
2023/10/08 06:31:13;;;;;;;2.40;1.52;;;;;;;21.32;57.97;102630.16;5000072;28;20046;-37
2023/10/08 06:33:43;;;;;;;4.25;1.75;;;;;;;21.30;57.67;102630.25;4995524;28;20050;-37
2023/10/08 06:38:41;;;;;;;3.40;1.60;;;;;;;21.29;57.86;102633.09;5002273;28;20194;-37
2023/10/08 06:41:15;;;;;;;3.90;1.55;;;;;;;21.29;57.73;102638.50;4998571;28;20449;-37
2023/10/08 06:44:02;;;;;;;3.15;1.45;;;;;;;21.28;58.16;102636.78;4996455;28;20074;-36
2023/10/08 06:46:32;;;;;;;2.58;1.45;;;;;;;21.27;58.14;102646.72;4997716;28;20056;-37
2023/10/08 06:49:00;;;;;;;2.55;1.50;;;;;;;21.27;57.88;102651.28;4999460;28;20050;-37
2023/10/08 06:51:32;;;;;;;2.67;1.60;;;;;;;21.24;58.15;102649.69;4999071;28;20054;-37
2023/10/08 06:54:02;;;;;;;2.97;1.65;;;;;;;21.24;58.09;102648.84;4997155;28;20081;-37
2023/10/08 06:56:31;;;;;;;2.85;1.50;;;;;;;21.20;57.96;102654.47;4999229;28;20074;-37
2023/10/08 06:58:59;;;;;;;2.38;1.50;;;;;;;21.23;58.08;102665.97;5004679;28;20052;-37
2023/10/08 07:01:26;;;;;;;1.77;1.25;;;;;;;21.19;58.11;102650.09;5001577;28;20049;-37
2023/10/08 07:04:03;;;;;;;2.47;1.60;;;;;;;21.18;57.89;102660.97;5000790;28;20049;-37
2023/10/08 07:06:37;;;;;;;2.95;1.40;;;;;;;21.19;58.10;102660.03;4999446;28;20462;-37
2023/10/08 07:09:05;;;;;;;2.22;1.50;;;;;;;21.18;58.38;102659.13;5002154;28;20050;-37
2023/10/08 07:11:34;;;;;;;2.45;1.52;;;;;;;21.18;58.13;102664.53;4997763;28;20042;-37
2023/10/08 07:14:03;;;;;;;2.50;1.58;;;;;;;21.19;58.06;102663.56;5001783;28;20049;-37
2023/10/08 07:16:31;;;;;;;3.13;1.40;;;;;;;21.19;58.31;102662.72;5000704;28;20389;-37
2023/10/08 07:19:03;;;;;;;2.95;1.60;;;;;;;21.17;58.18;102648.50;5000331;28;20050;-37
2023/10/08 07:21:38;;;;;;;3.70;1.58;;;;;;;21.18;57.82;102656.44;4998102;28;20057;-37
2023/10/08 07:24:15;;;;;;;1.48;1.15;;;;;;;21.19;57.98;102652.78;5003843;28;20057;-37
2023/10/08 07:26:46;;;;;;;2.97;1.48;;;;;;;21.20;58.08;102653.63;5003733;28;20145;-37
2023/10/08 07:29:17;;;;;;;2.78;1.50;;;;;;;21.19;58.02;102651.94;5005721;28;20097;-37
2023/10/08 07:31:48;;;;;;;2.67;1.17;;;;;;;21.19;57.77;102665.41;5007545;28;20070;-37
2023/10/08 07:34:25;;;;;;;2.97;1.40;;;;;;;21.20;58.25;102676.06;5001545;28;20501;-36
2023/10/08 07:36:54;;;;;;;3.10;1.52;;;;;;;21.20;57.96;102677.91;5005855;28;20125;-36
2023/10/08 07:41:59;;;;;;;3.15;1.67;;;;;;;21.20;57.70;102676.06;5000782;28;20112;-37
2023/10/08 07:44:30;;;;;;;1.80;1.27;;;;;;;21.21;57.97;102674.22;4998152;28;20458;-37
2023/10/08 07:47:00;;;;;;;3.03;1.60;;;;;;;21.22;57.93;102678.59;5002859;28;20050;-37
2023/10/08 07:49:29;;;;;;;2.63;1.35;;;;;;;21.23;58.06;102687.56;5007421;28;20041;-37
2023/10/08 07:51:58;;;;;;;3.47;1.70;;;;;;;21.23;57.50;102699.22;5003067;28;20311;-37
2023/10/08 07:54:28;;;;;;;3.13;1.50;;;;;;;21.24;57.76;102716.25;4995934;28;20101;-37
2023/10/08 07:59:46;;;;;;;3.13;1.90;;;;;;;21.21;57.56;102709.25;5001051;28;20105;-37
2023/10/08 08:02:14;;;;;;;1.88;1.17;;;;;;;21.24;57.69;102718.94;5002414;28;20056;-37
2023/10/08 08:04:50;;;;;;;2.28;1.20;;;;;;;21.22;57.61;102721.75;5008683;28;20105;-37
2023/10/08 08:07:18;;;;;;;3.20;1.17;;;;;;;21.24;57.54;102724.34;5001056;28;20520;-37
2023/10/08 08:09:51;;;;;;;3.33;1.48;;;;;;;21.24;57.68;102724.34;5001854;28;20076;-37
2023/10/08 08:12:25;;;;;;;2.13;1.30;;;;;;;21.25;58.01;102726.06;5003995;28;20078;-36
2023/10/08 08:14:52;;;;;;;2.15;1.08;;;;;;;21.25;57.76;102721.50;4999171;28;20046;-37
2023/10/08 08:17:19;;;;;;;1.40;1.00;;;;;;;21.26;57.57;102730.44;4999547;28;20053;-37
2023/10/08 08:19:47;;;;;;;1.98;1.20;;;;;;;21.27;57.66;102724.09;4999064;28;20065;-37
2023/10/08 08:22:20;;;;;;;2.15;1.08;;;;;;;21.27;57.48;102730.34;4999959;28;20080;-37
2023/10/08 08:24:59;;;;;;;3.35;1.20;;;;;;;21.28;57.52;102729.34;5000463;28;20596;-37
2023/10/08 08:27:31;;;;;;;2.22;1.33;;;;;;;21.29;57.49;102735.59;5004170;28;20054;-37
2023/10/08 08:30:09;;;;;;;4.35;1.73;;;;;;;21.30;57.74;102742.69;4998901;28;20115;-37
2023/10/08 08:32:39;;;;;;;4.32;1.60;;;;;;;21.31;57.74;102750.69;5003612;28;20061;-37
2023/10/08 08:35:10;;;;;;;2.78;1.35;;;;;;;21.32;57.65;102751.53;4999399;28;20058;-37
2023/10/08 08:37:40;;;;;;;3.22;1.50;;;;;;;21.33;57.65;102747.88;4998422;28;20058;-37
2023/10/08 08:40:17;;;;;;;3.67;1.77;;;;;;;21.33;57.66;102758.66;5004203;28;20077;-37
2023/10/08 08:42:48;;;;;;;6.18;1.85;;;;;;;21.34;57.46;102760.38;4998496;28;20050;-37
2023/10/08 08:45:20;;;;;;;3.03;1.80;;;;;;;21.35;57.46;102762.09;5000728;28;20050;-37
2023/10/08 08:47:47;;;;;;;4.80;1.90;;;;;;;21.34;57.56;102758.53;5000428;28;20353;-37
2023/10/08 08:50:14;;;;;;;3.55;1.67;;;;;;;21.36;57.63;102770.06;4999687;28;20058;-37
2023/10/08 08:52:41;;;;;;;3.90;1.95;;;;;;;21.35;57.67;102764.81;4999305;28;20140;-37
2023/10/08 08:55:16;;;;;;;3.03;1.33;;;;;;;21.35;57.52;102754.00;4998907;28;20460;-37
2023/10/08 08:57:53;;;;;;;5.50;1.77;;;;;;;21.35;57.54;102756.72;4998966;28;20046;-36
2023/10/08 09:00:20;;;;;;;6.32;2.17;;;;;;;21.36;57.70;102755.72;5002528;28;20057;-37
2023/10/08 09:02:49;;;;;;;4.25;1.73;;;;;;;21.36;57.53;102753.88;5001341;28;20435;-37
2023/10/08 09:05:25;;;;;;;4.85;1.80;;;;;;;21.37;57.48;102742.09;5002638;28;20053;-37
2023/10/08 09:08:05;;;;;;;6.20;1.75;;;;;;;21.40;57.32;102751.78;5000978;28;20050;-37
2023/10/08 09:10:37;;;;;;;6.18;2.10;;;;;;;21.40;57.41;102743.69;5006446;28;20133;-37
2023/10/08 09:13:08;;;;;;;3.08;1.73;;;;;;;21.41;57.54;102737.28;4999761;28;20046;-37
2023/10/08 09:15:36;;;;;;;5.43;1.95;;;;;;;21.42;57.43;102739.00;5000127;28;20046;-37
2023/10/08 09:18:04;;;;;;;4.32;1.80;;;;;;;21.43;57.52;102735.34;5003208;28;20053;-37
2023/10/08 09:20:31;;;;;;;2.67;1.73;;;;;;;21.43;57.78;102733.50;5002103;28;20054;-37
2023/10/08 09:23:07;;;;;;;3.05;1.40;;;;;;;21.44;57.52;102747.81;4999815;28;20528;-36
2023/10/08 09:25:34;;;;;;;4.13;1.60;;;;;;;21.46;57.33;102731.50;4998175;28;20046;-37
2023/10/08 09:28:01;;;;;;;5.53;2.17;;;;;;;21.49;57.09;102733.94;5002442;28;20104;-37
2023/10/08 09:30:29;;;;;;;3.80;1.52;;;;;;;21.49;57.34;102742.03;4995661;28;20049;-37
2023/10/08 09:32:56;;;;;;;4.97;1.50;;;;;;;21.50;57.08;102732.94;4995943;28;20108;-37
2023/10/08 09:35:25;;;;;;;4.22;1.70;;;;;;;21.52;57.36;102739.94;4999495;28;20050;-37
2023/10/08 09:37:52;;;;;;;5.00;1.80;;;;;;;;;;4997798;28;20069;-37
2023/10/08 09:40:20;;;;;;;3.75;1.50;;;;;;;21.56;57.08;102737.84;4994142;28;20046;-37
2023/10/08 09:42:47;;;;;;;3.15;1.45;;;;;;;21.57;56.25;102743.09;4999434;28;20239;-37
2023/10/08 09:45:14;;;;;;;3.50;1.55;;;;;;;21.58;56.56;102741.25;5001322;28;20054;-37
2023/10/08 09:47:48;;;;;;;3.15;1.63;;;;;;;21.59;56.35;102743.84;5003103;28;20104;-37
2023/10/08 09:50:15;;;;;;;4.35;1.50;;;;;;;21.59;56.39;102738.44;4998558;28;20109;-37
2023/10/08 09:52:56;;;;;;;3.17;1.60;;;;;;;21.60;56.27;102741.97;5000321;28;20053;-37
2023/10/08 09:55:23;;;;;;;2.83;1.33;;;;;;;21.60;56.70;102737.44;4995677;28;20050;-37
2023/10/08 09:57:51;;;;;;;3.03;1.50;;;;;;;21.61;56.46;102741.00;4998682;28;20050;-37
2023/10/08 10:00:29;;;;;;;2.72;1.40;;;;;;;21.61;56.40;102741.00;5000430;28;20105;-37
2023/10/08 10:02:58;;;;;;;3.53;1.52;;;;;;;21.61;56.48;102741.84;5001507;28;20054;-37
2023/10/08 10:05:30;;;;;;;3.13;1.58;;;;;;;21.60;56.47;102740.13;5001783;28;20074;-37
2023/10/08 10:07:57;;;;;;;3.75;1.60;;;;;;;21.60;56.42;102742.84;4996181;28;20534;-37
2023/10/08 10:10:31;;;;;;;2.17;1.10;;;;;;;21.59;56.56;102741.13;4998772;28;20319;-37
2023/10/08 10:13:07;;;;;;;3.50;1.85;;;;;;;21.59;56.30;102740.28;4999287;28;20432;-37
2023/10/08 10:15:37;;;;;;;4.63;1.40;;;;;;;21.58;56.51;102741.25;4996531;28;20096;-37
2023/10/08 10:18:16;;;;;;;3.15;1.63;;;;;;;21.57;56.67;102745.78;5004926;28;20054;-37
2023/10/08 10:20:52;;;;;;;2.90;1.33;;;;;;;21.58;56.50;102743.94;4998974;28;20108;-37
2023/10/08 10:23:50;;;;;;;5.03;1.80;;;;;;;21.57;56.55;102748.50;4999968;28;20441;-37
2023/10/08 10:26:23;;;;;;;2.05;1.08;;;;;;;21.58;56.20;102750.19;4995275;28;20074;-37
2023/10/08 10:29:11;;;;;;;2.03;1.07;;;;;;;21.58;56.47;102762.84;4996454;28;20046;-37
2023/10/08 10:31:38;;;;;;;2.33;1.20;;;;;;;21.59;56.67;102754.63;4997623;28;20053;-37
2023/10/08 10:34:09;;;;;;;4.15;1.83;;;;;;;21.58;56.45;102758.28;4997356;28;20050;-37
2023/10/08 10:36:40;;;;;;;4.38;1.48;;;;;;;21.59;56.45;102754.63;4997007;28;20625;-37
2023/10/08 10:39:17;;;;;;;1.63;1.13;;;;;;;21.61;56.46;102752.63;5000537;28;20394;-37
2023/10/08 10:41:45;;;;;;;3.25;1.52;;;;;;;21.60;56.52;102748.22;4998882;28;20108;-37
2023/10/08 10:44:13;;;;;;;3.42;1.42;;;;;;;21.60;56.52;102750.94;4999229;28;20133;-37
2023/10/08 10:46:50;;;;;;;3.40;1.50;;;;;;;21.60;56.33;102745.53;4999976;28;20145;-37
2023/10/08 10:49:24;;;;;;;3.40;1.20;;;;;;;21.61;56.11;102741.84;4999881;28;20185;-37
2023/10/08 10:51:59;;;;;;;4.03;1.58;;;;;;;21.61;56.36;102741.00;4997975;28;20124;-37
2023/10/08 10:54:35;;;;;;;3.00;1.30;;;;;;;21.61;56.19;102738.28;4996849;28;20081;-37
2023/10/08 10:57:09;;;;;;;3.17;1.15;;;;;;;21.59;56.09;102735.75;4997858;28;20053;-37
2023/10/08 10:59:38;;;;;;;1.92;0.98;;;;;;;21.59;56.04;102733.03;4998646;28;20057;-37
2023/10/08 11:02:20;;;;;;;3.05;1.42;;;;;;;21.61;56.30;102743.69;4995569;28;20056;-37
2023/10/08 11:04:47;;;;;;;3.50;1.55;;;;;;;21.62;56.27;102745.41;4997785;28;20081;-36
2023/10/08 11:07:19;;;;;;;3.20;1.20;;;;;;;21.59;56.39;102749.22;5001492;28;20061;-36
2023/10/08 11:09:52;;;;;;;4.32;1.40;;;;;;;21.58;56.38;102739.41;5001057;28;20060;-36
2023/10/08 11:12:22;;;;;;;3.42;1.30;;;;;;;21.58;56.22;102747.50;4999438;28;20042;-36
2023/10/08 11:14:52;;;;;;;2.38;1.17;;;;;;;21.58;56.16;102743.94;5000718;28;20445;-36
2023/10/08 11:17:24;;;;;;;2.47;1.50;;;;;;;21.58;56.42;102747.50;4996982;28;20042;-37
2023/10/08 11:19:52;;;;;;;1.98;1.42;;;;;;;21.59;56.55;102743.84;4999064;28;20045;-36
2023/10/08 11:22:22;;;;;;;2.13;1.27;;;;;;;21.59;56.58;102748.38;4998790;28;20050;-36
2023/10/08 11:24:53;;;;;;;2.58;1.38;;;;;;;21.60;56.33;102745.53;4998908;28;20072;-36
2023/10/08 11:27:38;;;;;;;3.25;1.38;;;;;;;21.61;56.33;102749.09;5000322;28;20054;-36
2023/10/08 11:30:10;;;;;;;2.20;1.27;;;;;;;21.62;56.26;102738.16;4996777;28;20148;-36
2023/10/08 11:32:38;;;;;;;2.53;1.10;;;;;;;21.62;56.49;102727.34;4999672;28;20078;-36
2023/10/08 11:35:15;;;;;;;1.98;1.13;;;;;;;21.63;56.12;102728.25;4997126;28;20046;-36
2023/10/08 11:37:50;;;;;;;3.17;1.20;;;;;;;21.64;56.35;102727.25;4998154;28;20046;-36
2023/10/08 11:43:15;;;;;;;2.60;1.45;;;;;;;21.67;56.41;102721.59;5000454;28;20050;-36
2023/10/08 11:45:48;;;;;;;1.80;0.98;;;;;;;21.67;56.14;102721.59;4995496;28;20084;-36
2023/10/08 11:48:21;;;;;;;3.67;1.37;;;;;;;21.68;56.25;102726.84;4996529;28;20062;-36
2023/10/08 11:50:50;;;;;;;;;;;;;;;21.68;56.01;102724.16;5000254;28;20057;-36
2023/10/08 11:53:19;;;;;;;1.70;1.00;;;;;;;21.73;55.97;102715.66;4994778;28;20381;-36
2023/10/08 11:55:47;;;;;;;1.70;1.00;;;;;;;21.73;56.00;102714.78;4996353;28;20057;-36
2023/10/08 11:58:17;;;;;;;1.73;0.90;;;;;;;21.74;56.04;102708.41;4999316;28;20065;-36
2023/10/08 12:00:45;;;;;;;2.67;1.08;;;;;;;21.73;56.11;102712.09;4996446;28;20065;-36
2023/10/08 12:03:18;;;;;;;2.22;1.10;;;;;;;21.74;56.20;102708.41;4995472;28;20050;-37
2023/10/08 12:05:48;;;;;;;2.58;1.10;;;;;;;21.74;56.17;102695.75;4997363;28;20129;-37
2023/10/08 12:08:22;;;;;;;2.83;1.25;;;;;;;21.75;55.77;102675.00;4999390;28;20137;-37
2023/10/08 12:10:53;;;;;;;1.40;1.10;;;;;;;21.76;56.16;102674.91;4999880;28;20069;-37
2023/10/08 12:13:24;;;;;;;2.70;1.13;;;;;;;21.79;55.68;102676.44;5004948;28;20150;-37
2023/10/08 12:16:12;;;;;;;2.53;1.20;;;;;;;21.80;55.86;102664.69;5003685;28;20080;-37
2023/10/08 12:18:43;;;;;;;2.25;1.20;;;;;;;21.82;55.59;102660.00;5003866;28;20089;-37
2023/10/08 12:21:10;;;;;;;2.22;1.13;;;;;;;21.83;55.68;102659.00;5004628;28;20049;-37
2023/10/08 12:23:38;;;;;;;2.58;1.23;;;;;;;21.84;55.79;102652.63;5000777;28;20323;-37
2023/10/08 12:26:07;;;;;;;1.83;1.08;;;;;;;21.86;55.57;102658.75;4998993;28;20068;-37
2023/10/08 12:28:37;;;;;;;2.63;1.05;;;;;;;21.87;55.88;102655.94;4998913;28;20046;-37
2023/10/08 12:31:04;;;;;;;3.40;1.50;;;;;;;21.88;55.84;102654.06;4998847;28;20093;-37
2023/10/08 12:33:31;;;;;;;1.77;1.25;;;;;;;21.88;55.75;102665.72;5000487;28;20042;-37
2023/10/08 12:36:05;;;;;;;1.15;0.95;;;;;;;21.91;55.48;102659.22;5003809;28;20045;-36
2023/10/08 12:38:31;;;;;;;;;;;;;;;21.89;55.67;102643.13;4998799;28;20078;-36
2023/10/08 12:41:08;;;;;;;1.73;1.20;;;;;;;21.93;55.64;102641.88;4999105;28;20214;-36
2023/10/08 12:43:38;;;;;;;2.50;1.20;;;;;;;21.93;55.54;102649.97;5000538;28;20609;-37
2023/10/08 12:46:10;;;;;;;1.92;1.23;;;;;;;21.93;55.79;102643.72;5000859;28;20053;-36
2023/10/08 12:48:38;;;;;;;2.13;1.10;;;;;;;21.94;55.54;102634.63;5003154;28;20064;-36
2023/10/08 12:51:06;;;;;;;2.55;1.38;;;;;;;21.93;55.69;102622.97;4998303;28;20062;-37
2023/10/08 12:53:36;;;;;;;1.90;1.05;;;;;;;21.94;55.61;102630.06;5001937;28;20042;-37
2023/10/08 12:56:14;;;;;;;1.65;1.10;;;;;;;21.95;55.28;102622.84;4999182;28;20046;-36